Terminal Aerodrome Forecast
Issued by NWS

Home | Current Version | Previous Version | Text Only | Print | Product List | Glossary On
Versions: 1 2 3 4 5 6 7 8 9 10 11 12 13 14
042
FTUS42 KTAE 301120
TAFDHN
TAF
KDHN 301120Z 3012/3112 26004KT P6SM SKC
     FM301400 29004KT P6SM SCT040
     FM301800 25008KT P6SM VCTS SCT050CB
     FM310000 24006KT P6SM FEW040 BKN250=

USA.gov is the U.S. government's official web portal to all federal, state and local government web resources and services.